Time;durP1;ratioP1;P1;durP2;ratioP2;P2;SDS_P1;SDS_P2;PMS_P1;PMS_P2;Temp;Humidity;BMP_temperature;BMP_pressure;BME280_temperature;BME280_humidity;BME280_pressure;Samples;Min_cycle;Max_cycle;Signal;HPM_P1;HPM_P2
2023/02/12 00:00:30;;;;;;;15.13;10.88;;;0.00;99.90;;;;;;5033479;28;20387;-71
2023/02/12 00:02:55;;;;;;;15.60;10.43;;;0.00;99.90;;;;;;5041230;28;20381;-71
2023/02/12 00:05:21;;;;;;;14.87;10.80;;;0.20;99.90;;;;;;5056287;28;20407;-71
2023/02/12 00:07:47;;;;;;;13.67;10.77;;;0.10;99.90;;;;;;5060536;28;20482;-72
2023/02/12 00:10:12;;;;;;;14.17;10.93;;;0.20;99.90;;;;;;5049778;28;20385;-71
2023/02/12 00:12:38;;;;;;;13.70;10.20;;;0.00;99.90;;;;;;5060421;28;20549;-71
2023/02/12 00:15:04;;;;;;;17.30;12.23;;;0.00;99.90;;;;;;5057763;28;21262;-72
2023/02/12 00:17:29;;;;;;;16.02;10.80;;;0.20;99.90;;;;;;5057616;28;20402;-71
2023/02/12 00:19:55;;;;;;;14.70;10.87;;;0.20;99.90;;;;;;5051111;28;20985;-71
2023/02/12 00:22:20;;;;;;;16.20;10.30;;;0.10;99.90;;;;;;5062132;28;20513;-71
2023/02/12 00:24:46;;;;;;;14.70;10.17;;;0.10;99.90;;;;;;5051946;28;20946;-71
2023/02/12 00:27:11;;;;;;;13.52;10.75;;;0.00;99.90;;;;;;5056662;28;20393;-72
2023/02/12 00:29:37;;;;;;;13.57;9.57;;;0.00;99.90;;;;;;5053893;28;20425;-71
2023/02/12 00:32:03;;;;;;;14.90;9.80;;;0.00;99.90;;;;;;5061377;28;20419;-70
2023/02/12 00:34:28;;;;;;;13.07;9.23;;;0.00;99.90;;;;;;5047052;28;20431;-71
2023/02/12 00:36:54;;;;;;;11.43;8.90;;;0.20;99.90;;;;;;5052459;28;20394;-71
2023/02/12 00:39:19;;;;;;;12.27;9.27;;;0.20;99.90;;;;;;5029381;28;20450;-71
2023/02/12 00:41:45;;;;;;;10.83;8.90;;;0.10;99.90;;;;;;5012615;28;20485;-71
2023/02/12 00:44:10;;;;;;;11.13;9.00;;;0.10;99.90;;;;;;5028983;28;20470;-70
2023/02/12 00:46:37;;;;;;;12.17;9.30;;;0.20;99.90;;;;;;5048879;28;20441;-72
2023/02/12 00:49:02;;;;;;;11.70;8.80;;;0.20;99.90;;;;;;5049046;28;20420;-71
2023/02/12 00:51:28;;;;;;;11.32;8.45;;;0.30;99.90;;;;;;5065303;28;20812;-72
2023/02/12 00:53:53;;;;;;;12.00;9.00;;;0.30;99.90;;;;;;5051342;28;20399;-71
2023/02/12 00:56:19;;;;;;;10.95;8.30;;;0.40;99.90;;;;;;5048662;28;20385;-71
2023/02/12 00:58:44;;;;;;;9.83;8.20;;;0.40;99.90;;;;;;5049853;28;20381;-71
2023/02/12 01:01:10;;;;;;;10.57;8.52;;;0.40;99.90;;;;;;5049019;28;20393;-71
2023/02/12 01:03:35;;;;;;;10.38;8.00;;;0.30;99.90;;;;;;5050177;28;20389;-72
2023/02/12 01:06:01;;;;;;;12.83;8.67;;;0.30;99.90;;;;;;5044474;28;20417;-71
2023/02/12 01:08:27;;;;;;;10.20;7.87;;;0.10;99.90;;;;;;5030204;28;20390;-71
2023/02/12 01:10:57;;;;;;;9.97;7.87;;;0.20;99.90;;;;;;5030262;28;20785;-71
2023/02/12 01:13:24;;;;;;;9.00;7.60;;;0.10;99.90;;;;;;5032798;28;20432;-71
2023/02/12 01:16:09;;;;;;;11.10;7.43;;;0.10;99.90;;;;;;5049533;28;20388;-71
2023/02/12 01:18:36;;;;;;;9.95;7.50;;;0.10;99.90;;;;;;5049936;28;20434;-70
2023/02/12 01:21:08;;;;;;;11.03;7.60;;;-0.10;99.90;;;;;;5049593;28;20488;-70
2023/02/12 01:23:33;;;;;;;10.65;7.65;;;-0.10;99.90;;;;;;5053454;28;20538;-71
2023/02/12 01:25:59;;;;;;;9.93;8.13;;;-0.20;99.90;;;;;;5053534;28;20595;-71
2023/02/12 01:28:24;;;;;;;9.43;8.00;;;-0.20;99.90;;;;;;5053983;28;20389;-71
2023/02/12 01:30:50;;;;;;;10.70;8.00;;;-0.30;99.90;;;;;;5053672;28;20389;-72
2023/02/12 01:33:15;;;;;;;10.13;7.40;;;-0.30;99.90;;;;;;5053962;28;20437;-72
2023/02/12 01:35:41;;;;;;;9.50;7.50;;;-0.30;99.90;;;;;;5053539;28;20991;-72
2023/02/12 01:38:06;;;;;;;10.33;7.57;;;-0.30;99.90;;;;;;5053921;28;20515;-72
2023/02/12 01:40:32;;;;;;;10.40;7.77;;;-0.30;99.90;;;;;;5053733;28;20460;-71
2023/02/12 01:43:01;;;;;;;8.50;7.07;;;-0.20;99.90;;;;;;5053480;28;20424;-72
2023/02/12 01:45:35;;;;;;;9.68;7.40;;;-0.20;99.90;;;;;;5035465;28;20429;-69
2023/02/12 01:48:01;;;;;;;8.75;6.85;;;-0.30;99.90;;;;;;5053716;28;20464;-73
2023/02/12 01:50:27;;;;;;;10.23;7.07;;;-0.20;99.90;;;;;;5053647;28;21017;-72
2023/02/12 01:52:56;;;;;;;9.77;6.50;;;-0.20;99.90;;;;;;5053549;28;20404;-71
2023/02/12 01:55:23;;;;;;;11.15;7.63;;;-0.20;99.90;;;;;;5052883;28;20783;-72
2023/02/12 01:57:49;;;;;;;9.30;7.00;;;-0.20;99.90;;;;;;5053224;28;20439;-72
2023/02/12 02:00:19;;;;;;;12.60;7.87;;;-0.20;99.90;;;;;;5053444;28;20389;-71
2023/02/12 02:02:50;;;;;;;10.93;7.37;;;-0.20;99.90;;;;;;5053477;28;20403;-72
2023/02/12 02:05:23;;;;;;;9.10;7.30;;;-0.20;99.90;;;;;;5053131;28;20408;-70
2023/02/12 02:07:49;;;;;;;9.32;7.10;;;-0.20;99.90;;;;;;5033504;28;20941;-72
2023/02/12 02:10:14;;;;;;;9.93;6.97;;;-0.10;99.90;;;;;;5050459;28;20480;-72
2023/02/12 02:15:27;;;;;;;6.85;6.15;;;0.00;99.90;;;;;;5053444;28;20436;-72
2023/02/12 02:18:13;;;;;;;11.20;7.20;;;-0.10;99.90;;;;;;5053326;28;20923;-72
2023/02/12 02:21:16;;;;;;;7.88;6.95;;;-0.10;99.90;;;;;;5052827;28;20421;-71
2023/02/12 02:23:57;;;;;;;10.35;6.40;;;0.10;99.90;;;;;;5053002;28;20488;-72
2023/02/12 02:26:43;;;;;;;7.50;6.00;;;0.10;99.90;;;;;;5034604;28;20459;-72
2023/02/12 02:29:38;;;;;;;8.90;6.47;;;0.10;99.90;;;;;;5053026;28;20438;-71
2023/02/12 02:32:23;;;;;;;7.43;5.90;;;0.00;99.90;;;;;;5052967;28;20377;-72
2023/02/12 02:35:01;;;;;;;10.20;6.60;;;-0.10;99.90;;;;;;5051180;28;20396;-72
2023/02/12 02:37:32;;;;;;;6.97;6.27;;;-0.10;99.90;;;;;;5052704;28;20441;-71
2023/02/12 02:40:20;;;;;;;9.10;6.30;;;-0.20;99.90;;;;;;5052569;28;20374;-71
2023/02/12 02:43:04;;;;;;;7.22;5.70;;;-0.20;99.90;;;;;;5052834;28;20385;-71
2023/02/12 02:45:54;;;;;;;7.05;6.30;;;-0.20;99.90;;;;;;5052481;28;20766;-72
2023/02/12 02:48:28;;;;;;;7.85;6.45;;;-0.50;99.90;;;;;;5052864;28;20767;-72
2023/02/12 02:51:02;;;;;;;9.48;6.68;;;-0.50;99.90;;;;;;5052808;28;20389;-72
2023/02/12 02:53:32;;;;;;;8.32;6.88;;;-0.40;99.90;;;;;;5052653;28;20378;-72
2023/02/12 02:56:00;;;;;;;9.95;6.57;;;-0.50;99.90;;;;;;5052113;28;20900;-71
2023/02/12 02:58:34;;;;;;;8.60;6.43;;;-0.60;99.90;;;;;;5052385;28;20764;-71
2023/02/12 03:01:17;;;;;;;8.57;7.22;;;-0.50;99.90;;;;;;5035175;28;20428;-72
2023/02/12 03:04:04;;;;;;;9.77;6.60;;;-0.50;99.90;;;;;;5052287;28;20390;-71
2023/02/12 03:06:55;;;;;;;9.70;6.97;;;-0.60;99.90;;;;;;5052060;28;20441;-72
2023/02/12 03:09:33;;;;;;;8.93;6.67;;;-0.60;99.90;;;;;;5041303;28;20389;-72
2023/02/12 03:12:05;;;;;;;9.60;6.72;;;-0.60;99.90;;;;;;5051763;28;20373;-72
2023/02/12 03:14:33;;;;;;;8.70;6.80;;;-0.70;99.90;;;;;;5052067;28;20459;-70
2023/02/12 03:17:08;;;;;;;9.95;7.20;;;-0.70;99.90;;;;;;5051242;28;20408;-72
2023/02/12 03:19:43;;;;;;;8.57;6.60;;;-0.70;99.90;;;;;;5052006;28;20492;-72
2023/02/12 03:22:13;;;;;;;9.52;7.07;;;-0.60;99.90;;;;;;5052089;28;20389;-72
2023/02/12 03:24:44;;;;;;;8.90;7.15;;;-0.80;99.90;;;;;;5090989;22;20430;-77
2023/02/12 03:27:12;;;;;;;8.95;6.68;;;-0.90;99.90;;;;;;5070976;28;20437;-77
2023/02/12 03:29:38;;;;;;;8.50;7.15;;;-0.70;99.90;;;;;;5069256;28;20383;-77
2023/02/12 03:32:16;;;;;;;8.95;6.47;;;-0.80;99.90;;;;;;5071283;28;20386;-77
2023/02/12 03:34:53;;;;;;;9.13;7.00;;;-0.90;99.90;;;;;;5071889;28;20396;-77
2023/02/12 03:37:35;;;;;;;8.60;6.80;;;-0.70;99.90;;;;;;5071359;28;20391;-77
2023/02/12 03:40:27;;;;;;;9.07;6.03;;;-0.50;99.90;;;;;;5071768;28;20459;-74
2023/02/12 03:43:08;;;;;;;8.95;6.53;;;-0.80;99.90;;;;;;5071413;28;20467;-77
2023/02/12 03:45:49;;;;;;;8.30;7.00;;;-0.90;99.90;;;;;;5069945;28;20407;-74
2023/02/12 03:48:32;;;;;;;8.65;6.63;;;-0.90;99.90;;;;;;5071387;28;20389;-77
2023/02/12 03:51:04;;;;;;;8.73;6.82;;;-0.90;99.90;;;;;;5059313;28;20389;-75
2023/02/12 03:53:31;;;;;;;9.88;7.32;;;-1.00;99.90;;;;;;5081974;28;20377;-74
2023/02/12 03:56:10;;;;;;;10.23;6.93;;;-0.80;99.90;;;;;;5050259;28;20468;-76
2023/02/12 03:58:38;;;;;;;7.55;6.32;;;-0.80;99.90;;;;;;5051547;28;20484;-77
2023/02/12 04:01:04;;;;;;;8.68;6.90;;;-1.00;99.90;;;;;;5050031;28;20404;-77
2023/02/12 04:03:31;;;;;;;8.90;6.80;;;-1.00;99.90;;;;;;5052620;28;20889;-77
2023/02/12 04:05:56;;;;;;;8.45;6.53;;;-1.10;99.90;;;;;;5066226;28;20409;-77
2023/02/12 04:08:23;;;;;;;8.23;6.50;;;-1.10;99.90;;;;;;5051172;28;20465;-75
2023/02/12 04:10:55;;;;;;;9.15;6.80;;;-1.00;99.90;;;;;;5085826;28;20394;-77
2023/02/12 04:13:42;;;;;;;9.30;6.80;;;-1.00;99.90;;;;;;5070655;28;20920;-74
2023/02/12 04:16:34;;;;;;;8.15;6.45;;;-1.00;99.90;;;;;;5070318;28;20615;-77
2023/02/12 04:19:00;;;;;;;9.02;6.90;;;-1.00;99.90;;;;;;5070654;28;20379;-76
2023/02/12 04:21:57;;;;;;;8.45;6.50;;;-1.10;99.90;;;;;;5070668;28;20411;-76
2023/02/12 04:24:22;;;;;;;9.05;6.63;;;-1.00;99.90;;;;;;5070403;28;20537;-77
2023/02/12 04:27:19;;;;;;;7.53;6.65;;;-1.00;99.90;;;;;;5068815;28;20968;-77
2023/02/12 04:30:04;;;;;;;8.85;6.82;;;-0.90;99.90;;;;;;5070617;28;20380;-77
2023/02/12 04:32:45;;;;;;;8.17;6.97;;;-1.10;99.90;;;;;;5070598;28;20372;-75
2023/02/12 04:35:26;;;;;;;8.47;6.50;;;-0.90;99.90;;;;;;5070988;28;20394;-74
2023/02/12 04:38:02;;;;;;;9.25;7.20;;;-0.90;99.90;;;;;;5070329;28;20391;-77
2023/02/12 04:40:28;;;;;;;8.30;6.90;;;-1.10;99.90;;;;;;5069327;28;20392;-77
2023/02/12 04:42:53;;;;;;;9.97;7.40;;;-1.10;99.90;;;;;;5070216;28;20433;-74
2023/02/12 04:45:29;;;;;;;8.95;7.20;;;-1.20;99.90;;;;;;5070347;28;20403;-77
2023/02/12 04:47:55;;;;;;;8.88;7.47;;;-1.10;99.90;;;;;;5069957;28;20449;-77
2023/02/12 04:50:21;;;;;;;8.52;6.88;;;-1.10;99.90;;;;;;5070534;28;20396;-77
2023/02/12 04:52:47;;;;;;;10.57;7.37;;;-1.20;99.90;;;;;;5070049;28;20502;-77
2023/02/12 04:55:12;;;;;;;9.02;6.80;;;-1.10;99.90;;;;;;5070580;28;20795;-77
2023/02/12 04:57:38;;;;;;;9.30;6.88;;;-1.20;99.90;;;;;;5069000;28;20395;-77
2023/02/12 05:00:05;;;;;;;8.50;7.20;;;-1.20;99.90;;;;;;5070307;28;20390;-77
2023/02/12 05:02:32;;;;;;;8.65;7.20;;;-1.20;99.90;;;;;;5070132;28;20388;-77
2023/02/12 05:04:58;;;;;;;9.70;7.43;;;-1.20;99.90;;;;;;5070150;28;20479;-77
2023/02/12 05:07:23;;;;;;;9.73;6.93;;;-1.20;99.90;;;;;;5053698;28;20796;-75
2023/02/12 05:09:49;;;;;;;7.28;6.00;;;-1.30;99.90;;;;;;5060110;28;20913;-75
2023/02/12 05:12:14;;;;;;;9.70;7.00;;;-1.20;99.90;;;;;;5070649;28;20376;-75
2023/02/12 05:14:40;;;;;;;8.45;6.70;;;-1.20;99.90;;;;;;5070738;28;20382;-75
2023/02/12 05:17:05;;;;;;;9.02;6.53;;;-1.30;99.90;;;;;;5070104;28;20380;-75
2023/02/12 05:19:31;;;;;;;8.77;6.50;;;-1.20;99.90;;;;;;5069498;28;20384;-75
2023/02/12 05:21:56;;;;;;;8.85;6.57;;;-1.20;99.90;;;;;;5070727;28;20928;-75
2023/02/12 05:24:22;;;;;;;7.70;6.10;;;-1.20;99.90;;;;;;5069026;28;20399;-75
2023/02/12 05:26:49;;;;;;;8.17;6.10;;;-1.10;99.90;;;;;;5070166;28;20480;-75
2023/02/12 05:29:15;;;;;;;7.85;6.10;;;-1.10;99.90;;;;;;5070728;28;20372;-75
2023/02/12 05:31:41;;;;;;;7.57;6.00;;;-1.10;99.90;;;;;;5070245;28;20438;-75
2023/02/12 05:34:10;;;;;;;7.67;6.07;;;-1.20;99.90;;;;;;5070356;28;20376;-75
2023/02/12 05:36:35;;;;;;;8.20;6.15;;;-1.20;99.90;;;;;;5068624;28;20998;-75
2023/02/12 05:39:01;;;;;;;9.33;7.20;;;-1.30;99.90;;;;;;5069889;28;20569;-75
2023/02/12 05:41:27;;;;;;;8.83;6.63;;;-1.30;99.90;;;;;;5070033;28;20758;-75
2023/02/12 05:43:53;;;;;;;8.43;6.72;;;-1.30;99.90;;;;;;5069549;28;20513;-75
2023/02/12 05:46:20;;;;;;;8.93;7.30;;;-1.20;99.90;;;;;;5068986;28;20487;-75
2023/02/12 05:48:46;;;;;;;9.32;7.25;;;-1.20;99.90;;;;;;5070212;28;20422;-75
2023/02/12 05:51:15;;;;;;;10.68;7.65;;;-1.10;99.90;;;;;;5070048;28;20419;-75
2023/02/12 05:53:41;;;;;;;8.52;7.13;;;-1.10;99.90;;;;;;5069799;28;20383;-75
2023/02/12 05:56:13;;;;;;;10.23;7.38;;;-1.10;99.90;;;;;;5069572;28;20386;-75
2023/02/12 05:58:40;;;;;;;11.48;7.50;;;-1.00;99.90;;;;;;5069862;28;20379;-75
2023/02/12 06:01:12;;;;;;;10.25;8.10;;;-1.10;99.90;;;;;;5068629;28;20903;-75
2023/02/12 06:03:37;;;;;;;9.70;7.47;;;-1.10;99.90;;;;;;5069570;28;20392;-75
2023/02/12 06:06:03;;;;;;;10.27;6.90;;;-1.20;99.90;;;;;;5064489;28;20472;-75
2023/02/12 06:08:28;;;;;;;11.07;6.90;;;-1.20;99.90;;;;;;5051413;28;20863;-75
2023/02/12 06:10:54;;;;;;;8.97;7.27;;;-1.30;99.90;;;;;;5053589;28;20800;-75
2023/02/12 06:13:19;;;;;;;8.70;7.17;;;-1.30;99.90;;;;;;5053223;28;20796;-75
2023/02/12 06:15:45;;;;;;;8.23;7.17;;;-1.30;99.90;;;;;;5052977;28;20416;-75
2023/02/12 06:18:10;;;;;;;10.17;7.20;;;-1.30;99.90;;;;;;5053215;28;20393;-75
2023/02/12 06:20:38;;;;;;;10.30;7.80;;;-1.40;99.90;;;;;;5067206;28;20403;-75
2023/02/12 06:23:04;;;;;;;9.23;7.00;;;-1.30;99.90;;;;;;5071440;28;20893;-75
2023/02/12 06:25:29;;;;;;;8.85;7.10;;;-1.30;99.90;;;;;;5071726;28;20434;-75
2023/02/12 06:27:55;;;;;;;9.18;7.40;;;-1.20;99.90;;;;;;5071689;28;20384;-75
2023/02/12 06:30:20;;;;;;;10.23;7.80;;;-1.20;99.90;;;;;;5073005;28;20476;-75
2023/02/12 06:32:49;;;;;;;10.63;8.00;;;-1.20;99.90;;;;;;5072991;28;20454;-75
2023/02/12 06:35:14;;;;;;;10.65;7.63;;;-1.20;99.90;;;;;;5072789;28;20920;-75
2023/02/12 06:37:40;;;;;;;8.35;7.32;;;-1.20;99.90;;;;;;5072308;28;20446;-75
2023/02/12 06:40:06;;;;;;;10.18;7.50;;;-1.20;99.90;;;;;;5072980;28;20380;-75
2023/02/12 06:42:32;;;;;;;7.78;6.97;;;-1.20;99.90;;;;;;5071072;28;20935;-75
2023/02/12 06:44:57;;;;;;;7.70;6.90;;;-1.20;99.90;;;;;;5072361;28;20388;-74
2023/02/12 06:47:23;;;;;;;11.47;7.77;;;-1.20;99.90;;;;;;5072336;28;20478;-75
2023/02/12 06:49:48;;;;;;;10.43;8.00;;;-1.30;99.90;;;;;;5072729;28;20419;-75
2023/02/12 06:52:14;;;;;;;11.07;8.40;;;-1.30;99.90;;;;;;5071947;28;20452;-75
2023/02/12 06:54:40;;;;;;;12.03;7.73;;;-1.10;99.90;;;;;;5072649;28;20396;-75
2023/02/12 06:57:05;;;;;;;9.63;8.00;;;-1.10;99.90;;;;;;5072074;28;20738;-75
2023/02/12 06:59:31;;;;;;;10.23;8.00;;;-1.00;99.90;;;;;;5072376;28;20391;-75
2023/02/12 07:01:56;;;;;;;7.67;6.87;;;-1.10;99.90;;;;;;5071250;28;20392;-75
2023/02/12 07:04:22;;;;;;;12.33;8.97;;;-1.10;99.90;;;;;;5072085;28;20391;-75
2023/02/12 07:06:48;;;;;;;9.00;7.80;;;-1.10;99.90;;;;;;5061037;28;20420;-75
2023/02/12 07:09:13;;;;;;;11.27;7.70;;;-1.10;99.90;;;;;;5051674;28;20405;-75
2023/02/12 07:11:39;;;;;;;10.13;7.55;;;-1.00;99.90;;;;;;5051613;28;20394;-75
2023/02/12 07:14:06;;;;;;;9.90;7.47;;;-1.00;99.90;;;;;;5051531;28;20385;-75
2023/02/12 07:16:31;;;;;;;11.60;8.25;;;-0.90;99.90;;;;;;5062789;28;20786;-75
2023/02/12 07:18:57;;;;;;;10.93;8.07;;;-0.80;99.90;;;;;;5071888;28;20396;-75
2023/02/12 07:21:22;;;;;;;9.80;7.40;;;-0.80;99.90;;;;;;5072113;28;20380;-73
2023/02/12 07:23:50;;;;;;;10.43;8.20;;;-0.80;99.90;;;;;;5071960;28;20395;-73
2023/02/12 07:26:17;;;;;;;9.20;7.88;;;-0.80;99.90;;;;;;5071387;28;20406;-73
2023/02/12 07:28:43;;;;;;;10.05;8.15;;;-0.80;99.90;;;;;;5071784;28;20411;-73
2023/02/12 07:31:14;;;;;;;9.90;7.70;;;-0.90;99.90;;;;;;5068572;28;20507;-73
2023/02/12 07:33:41;;;;;;;10.85;8.43;;;-0.90;99.90;;;;;;5070927;28;20466;-73
2023/02/12 07:36:10;;;;;;;12.63;9.00;;;-0.80;99.90;;;;;;5069573;28;20384;-73
2023/02/12 07:38:38;;;;;;;9.63;8.02;;;-0.70;99.90;;;;;;5071480;28;20761;-73
2023/02/12 07:41:14;;;;;;;9.27;7.80;;;-0.60;99.90;;;;;;5070893;28;20881;-73
2023/02/12 07:43:42;;;;;;;8.82;7.88;;;-0.50;99.90;;;;;;5069404;28;20753;-73
2023/02/12 07:46:20;;;;;;;10.40;7.70;;;-0.40;99.90;;;;;;5070308;28;20417;-73
2023/02/12 07:48:46;;;;;;;8.13;7.15;;;-0.30;99.90;;;;;;5071130;28;20384;-73
2023/02/12 07:51:15;;;;;;;10.25;7.70;;;-0.20;99.90;;;;;;5071258;28;20730;-73
2023/02/12 07:53:41;;;;;;;9.07;7.63;;;-0.20;99.90;;;;;;5070493;28;20419;-73
2023/02/12 07:56:11;;;;;;;9.80;7.80;;;-0.10;99.90;;;;;;5071270;28;20479;-73
2023/02/12 07:58:38;;;;;;;9.30;7.90;;;-0.20;99.90;;;;;;5069681;28;20828;-73
2023/02/12 08:01:14;;;;;;;9.95;8.10;;;-0.10;99.90;;;;;;5071080;28;20399;-74
2023/02/12 08:03:39;;;;;;;8.80;7.90;;;0.00;99.90;;;;;;5070608;28;20566;-73
2023/02/12 08:06:15;;;;;;;9.98;7.72;;;0.20;99.90;;;;;;5065083;28;20398;-73
2023/02/12 08:08:40;;;;;;;8.63;7.70;;;0.30;99.90;;;;;;5083564;28;20811;-73
2023/02/12 08:11:08;;;;;;;12.77;7.70;;;0.30;99.90;;;;;;5051349;28;20446;-74
2023/02/12 08:13:34;;;;;;;9.32;8.32;;;0.40;99.90;;;;;;5050901;28;20386;-74
2023/02/12 08:16:09;;;;;;;9.90;8.40;;;0.50;99.90;;;;;;5059407;28;20762;-74
2023/02/12 08:18:35;;;;;;;9.80;8.35;;;0.60;99.90;;;;;;5070601;28;20761;-74
2023/02/12 08:21:16;;;;;;;12.05;10.75;;;0.90;99.90;;;;;;5069751;28;20972;-74
2023/02/12 08:23:43;;;;;;;9.77;8.63;;;1.10;99.90;;;;;;5070687;28;20395;-74
2023/02/12 08:26:15;;;;;;;10.75;8.27;;;1.10;99.90;;;;;;5070176;28;20775;-74
2023/02/12 08:28:44;;;;;;;10.23;9.23;;;1.20;99.90;;;;;;5070605;28;20386;-73
2023/02/12 08:31:13;;;;;;;10.20;9.10;;;1.40;99.90;;;;;;5069792;28;20400;-74
2023/02/12 08:33:38;;;;;;;10.05;8.40;;;1.60;99.90;;;;;;5069768;28;20395;-74
2023/02/12 08:36:15;;;;;;;9.30;8.20;;;1.80;99.90;;;;;;5065583;28;20479;-74
2023/02/12 08:38:42;;;;;;;13.98;10.15;;;1.90;99.90;;;;;;5068226;28;20954;-74
2023/02/12 08:41:11;;;;;;;14.48;10.57;;;2.10;99.90;;;;;;5069337;28;20384;-73
2023/02/12 08:43:40;;;;;;;14.63;11.98;;;2.10;99.90;;;;;;5068131;28;20403;-73
2023/02/12 08:46:10;;;;;;;13.63;11.15;;;2.20;99.90;;;;;;5070094;28;20403;-73
2023/02/12 08:48:35;;;;;;;12.82;10.50;;;2.20;99.90;;;;;;5068825;28;20897;-74
2023/02/12 08:51:09;;;;;;;12.73;10.20;;;2.30;99.90;;;;;;5061445;28;20404;-73
2023/02/12 08:53:37;;;;;;;13.57;10.63;;;2.30;99.90;;;;;;5050250;28;20432;-73
2023/02/12 08:56:03;;;;;;;12.50;10.80;;;2.30;99.90;;;;;;5056534;28;20407;-74
2023/02/12 08:58:29;;;;;;;14.07;11.88;;;2.50;99.90;;;;;;5070438;28;21081;-73
2023/02/12 09:00:54;;;;;;;15.63;11.60;;;2.70;99.90;;;;;;5069097;28;21048;-73
2023/02/12 09:03:22;;;;;;;16.57;12.70;;;2.70;99.90;;;;;;5070010;28;20383;-74
2023/02/12 09:05:48;;;;;;;16.45;12.98;;;2.70;99.90;;;;;;5070021;28;20495;-77
2023/02/12 09:08:14;;;;;;;15.35;13.10;;;2.90;99.90;;;;;;5070327;28;20478;-75
2023/02/12 09:10:41;;;;;;;16.65;14.90;;;3.00;99.90;;;;;;5066612;28;20402;-73
2023/02/12 09:13:08;;;;;;;17.55;14.10;;;3.10;99.90;;;;;;5064958;28;20392;-73
2023/02/12 09:15:43;;;;;;;16.98;14.55;;;3.20;99.90;;;;;;5065766;28;20397;-74
2023/02/12 09:18:12;;;;;;;17.35;13.32;;;3.30;99.90;;;;;;5065133;28;22571;-74
2023/02/12 09:20:40;;;;;;;18.55;14.02;;;3.40;99.90;;;;;;5065913;28;20405;-73
2023/02/12 09:23:11;;;;;;;17.13;14.60;;;3.50;99.90;;;;;;5064148;28;20439;-73
2023/02/12 09:25:44;;;;;;;18.88;14.95;;;3.60;99.90;;;;;;5049984;28;20404;-74
2023/02/12 09:28:12;;;;;;;18.58;15.80;;;3.70;99.90;;;;;;5064768;28;20383;-74
2023/02/12 09:30:39;;;;;;;20.17;15.57;;;3.80;99.90;;;;;;5064654;28;20384;-74
2023/02/12 09:33:05;;;;;;;18.90;15.60;;;4.00;99.90;;;;;;5065547;28;20379;-73
2023/02/12 09:35:34;;;;;;;19.73;15.90;;;3.90;99.90;;;;;;5063390;28;20399;-74
2023/02/12 09:37:59;;;;;;;17.67;15.70;;;4.10;99.90;;;;;;5056604;28;20392;-73
2023/02/12 09:40:37;;;;;;;19.88;15.70;;;4.20;99.90;;;;;;5057023;28;20387;-74
2023/02/12 09:43:29;;;;;;;20.77;15.73;;;4.40;99.90;;;;;;5066449;28;20421;-73
2023/02/12 09:46:32;;;;;;;21.27;17.20;;;4.50;99.90;;;;;;5069022;28;20407;-73
2023/02/12 09:49:09;;;;;;;18.10;14.82;;;4.50;99.90;;;;;;5069609;28;20376;-73
2023/02/12 09:51:40;;;;;;;18.05;15.25;;;4.60;99.90;;;;;;5061609;28;20759;-74
2023/02/12 09:54:17;;;;;;;21.30;15.93;;;4.70;99.90;;;;;;5057512;28;20865;-73
2023/02/12 09:56:48;;;;;;;19.75;15.93;;;4.70;99.90;;;;;;5062757;28;20423;-74
2023/02/12 09:59:45;;;;;;;18.77;15.33;;;4.80;99.90;;;;;;5067217;28;20485;-74
2023/02/12 10:02:15;;;;;;;16.02;13.45;;;4.80;99.90;;;;;;5052808;28;20421;-74
2023/02/12 10:04:44;;;;;;;16.90;14.38;;;4.70;99.90;;;;;;5059924;28;20889;-74
2023/02/12 10:07:16;;;;;;;19.38;15.77;;;4.80;99.90;;;;;;5065406;28;20415;-74
2023/02/12 10:10:06;;;;;;;17.85;15.50;;;4.80;99.90;;;;;;5061861;28;20392;-74
2023/02/12 10:12:38;;;;;;;23.17;18.38;;;4.80;99.90;;;;;;5064955;28;20380;-74
2023/02/12 10:15:14;;;;;;;19.75;16.17;;;4.90;99.90;;;;;;5066786;28;20400;-74
2023/02/12 10:17:49;;;;;;;20.20;16.58;;;5.00;99.90;;;;;;5067849;28;20384;-74
2023/02/12 10:20:20;;;;;;;23.13;18.10;;;5.00;99.90;;;;;;5066384;28;20413;-72
2023/02/12 10:23:06;;;;;;;25.42;19.45;;;5.10;99.90;;;;;;5067718;28;20388;-73
2023/02/12 10:25:50;;;;;;;21.55;18.85;;;5.30;99.90;;;;;;5060947;28;20502;-73
2023/02/12 10:28:24;;;;;;;24.08;18.42;;;5.40;99.90;;;;;;5065707;28;20395;-74
2023/02/12 10:31:00;;;;;;;25.15;19.23;;;5.40;99.90;;;;;;5067796;28;20384;-73
2023/02/12 10:33:30;;;;;;;22.20;19.80;;;5.40;99.90;;;;;;5067086;28;20404;-75
2023/02/12 10:36:20;;;;;;;21.70;18.40;;;5.60;99.90;;;;;;5068695;28;20399;-76
2023/02/12 10:38:51;;;;;;;22.90;19.27;;;5.70;99.90;;;;;;5061773;28;20409;-76
2023/02/12 10:41:16;;;;;;;21.75;17.98;;;5.70;99.90;;;;;;5102769;22;20486;-76
2023/02/12 10:43:42;;;;;;;21.80;17.50;;;5.50;99.90;;;;;;5091575;28;20747;-75
2023/02/12 10:46:15;;;;;;;22.50;17.92;;;5.80;99.90;;;;;;5092370;28;20554;-75
2023/02/12 10:48:45;;;;;;;22.05;17.77;;;5.80;99.90;;;;;;5091998;28;20409;-76
2023/02/12 10:51:36;;;;;;;23.27;19.17;;;5.80;99.90;;;;;;5093307;28;20405;-76
2023/02/12 10:54:41;;;;;;;19.90;17.58;;;5.90;99.90;;;;;;5105970;28;20400;-75
2023/02/12 10:57:20;;;;;;;21.77;17.93;;;6.00;99.90;;;;;;5098958;28;20471;-71
2023/02/12 10:59:48;;;;;;;20.42;16.98;;;6.00;99.90;;;;;;5101859;28;20373;-74
2023/02/12 11:02:21;;;;;;;18.90;16.40;;;6.00;99.90;;;;;;5103290;28;20739;-73
2023/02/12 11:04:48;;;;;;;20.20;17.38;;;6.20;99.90;;;;;;5091915;28;20806;-73
2023/02/12 11:07:13;;;;;;;19.48;16.40;;;6.40;97.90;;;;;;5102337;28;20405;-73
2023/02/12 11:09:44;;;;;;;21.00;16.95;;;6.60;96.40;;;;;;5099641;28;20385;-74
2023/02/12 11:12:32;;;;;;;18.02;15.32;;;6.60;97.30;;;;;;5099777;28;20378;-72
2023/02/12 11:15:02;;;;;;;19.23;15.88;;;6.80;93.00;;;;;;5109195;28;21871;-75
2023/02/12 11:17:42;;;;;;;18.55;15.45;;;7.00;91.90;;;;;;5096597;28;20397;-72
2023/02/12 11:20:17;;;;;;;18.67;16.67;;;7.40;90.30;;;;;;5103327;28;20472;-76
2023/02/12 11:22:55;;;;;;;17.92;15.57;;;7.40;89.10;;;;;;5106368;28;20374;-74
2023/02/12 11:25:22;;;;;;;18.25;16.00;;;7.80;86.50;;;;;;5092503;28;20436;-74
2023/02/12 11:28:18;;;;;;;17.65;14.82;;;7.70;80.10;;;;;;5099722;28;20471;-75
2023/02/12 11:31:01;;;;;;;18.45;14.05;;;7.90;78.60;;;;;;5082427;28;20866;-72
2023/02/12 11:33:34;;;;;;;15.55;13.15;;;8.20;76.90;;;;;;5099573;28;20386;-71
2023/02/12 11:36:20;;;;;;;17.45;14.00;;;8.70;69.60;;;;;;5102208;28;20400;-76
2023/02/12 11:38:53;;;;;;;15.50;13.80;;;8.80;63.80;;;;;;5101638;28;20406;-75
2023/02/12 11:41:33;;;;;;;16.15;14.45;;;9.80;57.60;;;;;;5101102;28;20446;-72
2023/02/12 11:44:00;;;;;;;14.93;13.37;;;10.10;47.80;;;;;;5098939;28;20498;-71
2023/02/12 11:46:27;;;;;;;16.57;14.57;;;10.70;46.10;;;;;;5106972;28;20782;-76
2023/02/12 11:48:54;;;;;;;15.57;13.98;;;10.30;43.70;;;;;;5107360;28;20381;-75
2023/02/12 11:51:28;;;;;;;15.67;14.00;;;10.20;43.60;;;;;;5102308;27;20810;-75
2023/02/12 11:53:57;;;;;;;15.85;14.15;;;11.30;41.90;;;;;;5102187;28;20387;-71
2023/02/12 11:56:22;;;;;;;16.92;15.23;;;11.10;40.70;;;;;;5103263;28;20397;-75
2023/02/12 11:58:49;;;;;;;15.10;13.50;;;10.60;42.70;;;;;;5101588;28;20378;-76
2023/02/12 12:01:32;;;;;;;14.70;13.20;;;10.90;42.50;;;;;;5101503;28;20765;-75
2023/02/12 12:04:10;;;;;;;13.00;11.60;;;11.40;40.90;;;;;;5101887;28;20393;-76
2023/02/12 12:07:02;;;;;;;13.73;12.32;;;11.80;38.80;;;;;;5102420;28;20414;-76
2023/02/12 12:09:42;;;;;;;14.25;12.52;;;11.20;40.80;;;;;;5102962;28;20389;-76
2023/02/12 12:13:01;;;;;;;15.15;13.65;;;11.30;40.00;;;;;;5101189;28;20459;-76
2023/02/12 12:21:46;;;;;;;11.68;10.57;;;11.50;36.10;;;;;;5089963;28;20413;-76
2023/02/12 12:24:39;;;;;;;12.23;10.93;;;11.90;33.90;;;;;;5093724;28;20447;-77
2023/02/12 12:28:02;;;;;;;11.48;10.25;;;12.20;34.00;;;;;;5098074;28;20418;-77
2023/02/12 12:30:38;;;;;;;13.50;12.10;;;12.90;34.40;;;;;;5090375;28;20610;-77
2023/02/12 12:33:11;;;;;;;13.83;12.53;;;12.20;35.40;;;;;;5100980;28;20395;-76
2023/02/12 12:36:22;;;;;;;13.95;12.60;;;12.00;35.90;;;;;;5100161;28;20762;-77
2023/02/12 12:39:25;;;;;;;13.90;12.50;;;11.80;35.00;;;;;;5103251;28;20761;-77
2023/02/12 12:42:06;;;;;;;12.02;10.73;;;13.10;33.60;;;;;;5104336;28;20445;-77
2023/02/12 12:45:03;;;;;;;13.63;12.27;;;13.00;34.90;;;;;;5091687;28;20397;-76
2023/02/12 12:47:35;;;;;;;12.80;11.50;;;12.00;32.20;;;;;;5095609;28;20457;-77
2023/02/12 12:50:26;;;;;;;11.77;10.57;;;13.30;32.80;;;;;;5089842;28;20769;-74
2023/02/12 12:52:58;;;;;;;12.70;11.50;;;12.70;32.30;;;;;;5106700;28;20451;-74
2023/02/12 12:56:17;;;;;;;13.25;11.95;;;12.50;32.00;;;;;;5090386;28;20428;-76
2023/02/12 12:58:43;;;;;;;12.45;11.25;;;12.40;35.30;;;;;;5023345;28;20399;-75
2023/02/12 13:01:33;;;;;;;12.30;11.10;;;12.80;32.30;;;;;;5091538;28;20395;-77
2023/02/12 13:04:05;;;;;;;11.40;10.30;;;13.60;33.20;;;;;;5090536;28;20423;-77
2023/02/12 13:06:43;;;;;;;11.38;10.35;;;12.40;32.60;;;;;;5103310;28;20849;-76
2023/02/12 13:09:27;;;;;;;10.75;9.75;;;13.40;31.80;;;;;;5091927;28;20404;-76
2023/02/12 13:12:16;;;;;;;9.90;8.90;;;12.90;33.80;;;;;;5102677;28;20443;-76
2023/02/12 13:14:54;;;;;;;9.20;8.30;;;12.40;37.60;;;;;;5092781;28;20407;-75